createdAt,value
2023-02-09T00:01:54.992Z,101919.27
2023-02-09T00:04:56.718Z,101916.11
2023-02-09T00:07:58.742Z,101909.45
2023-02-09T00:11:00.630Z,101906.87
2023-02-09T00:14:02.294Z,101904.75
2023-02-09T00:17:04.885Z,101899.48
2023-02-09T00:20:08.483Z,101890.97
2023-02-09T00:23:10.088Z,101885.90
2023-02-09T00:26:11.984Z,101890.79
2023-02-09T00:29:14.617Z,101888.55
2023-02-09T00:32:16.272Z,101882.52
2023-02-09T00:35:18.202Z,101880.57
2023-02-09T00:38:19.757Z,101877.69
2023-02-09T00:41:21.400Z,101873.84
2023-02-09T00:44:22.942Z,101867.88
2023-02-09T00:47:25.064Z,101866.98
2023-02-09T00:50:28.011Z,101859.90
2023-02-09T00:53:30.065Z,101852.02
2023-02-09T00:56:31.734Z,101844.08
2023-02-09T00:59:34.699Z,101843.50
2023-02-09T01:02:36.962Z,101847.45
2023-02-09T01:05:43.023Z,101844.52
2023-02-09T01:08:45.103Z,101842.52
2023-02-09T01:11:46.910Z,101837.89
2023-02-09T01:14:48.647Z,101835.84
2023-02-09T01:17:50.452Z,101828.65
2023-02-09T01:20:52.043Z,101828.29
2023-02-09T01:23:53.616Z,101827.51
2023-02-09T01:26:55.599Z,101823.18
2023-02-09T01:29:57.514Z,101821.24
2023-02-09T01:32:59.227Z,101825.49
2023-02-09T01:36:04.782Z,101823.80
2023-02-09T01:39:08.474Z,101824.34
2023-02-09T01:42:18.530Z,101824.62
2023-02-09T01:45:23.418Z,101821.48
2023-02-09T01:48:28.601Z,101819.02
2023-02-09T01:51:33.587Z,101820.75
2023-02-09T01:54:51.680Z,101823.84
2023-02-09T01:57:57.149Z,101817.98
2023-02-09T02:01:00.191Z,101808.46
2023-02-09T02:04:02.155Z,101800.48
2023-02-09T02:07:18.518Z,101796.90
2023-02-09T02:10:20.226Z,101796.79
2023-02-09T02:13:21.891Z,101799.55
2023-02-09T02:16:23.553Z,101802.85
2023-02-09T02:20:07.716Z,101793.20
2023-02-09T02:23:30.753Z,101792.39
2023-02-09T02:26:41.166Z,101795.84
2023-02-09T02:29:52.048Z,101792.61
2023-02-09T02:33:05.616Z,101793.76
2023-02-09T02:36:28.565Z,101798.56
2023-02-09T02:39:44.054Z,101789.94
2023-02-09T02:42:53.738Z,101788.94
2023-02-09T02:45:55.333Z,101791.98
2023-02-09T02:49:08.184Z,101786.45
2023-02-09T02:52:11.124Z,101783.88
2023-02-09T02:55:18.776Z,101781.95
2023-02-09T02:58:22.323Z,101785.13
2023-02-09T03:01:26.502Z,101784.09
2023-02-09T03:04:28.648Z,101792.91
2023-02-09T03:07:31.690Z,101789.91
2023-02-09T03:10:36.463Z,101785.94
2023-02-09T03:13:57.092Z,101776.92
2023-02-09T03:17:35.536Z,101770.68
2023-02-09T03:20:59.421Z,101765.38
2023-02-09T03:24:07.356Z,101765.37
2023-02-09T03:27:22.163Z,101764.39
2023-02-09T03:30:24.617Z,101759.19
2023-02-09T03:33:30.638Z,101754.27
2023-02-09T03:36:35.304Z,101752.46
2023-02-09T03:39:37.122Z,101747.64
2023-02-09T03:42:38.573Z,101753.45
2023-02-09T03:45:40.540Z,101753.17
2023-02-09T03:48:42.035Z,101746.09
2023-02-09T03:51:43.826Z,101743.61
2023-02-09T03:54:45.868Z,101742.05
2023-02-09T03:57:47.549Z,101744.82
2023-02-09T04:00:49.264Z,101745.73
2023-02-09T04:03:51.000Z,101739.71
2023-02-09T04:06:52.590Z,101734.94
2023-02-09T04:09:54.290Z,101733.92
2023-02-09T04:12:55.909Z,101731.67
2023-02-09T04:15:57.467Z,101736.77
2023-02-09T04:18:59.199Z,101747.23
2023-02-09T04:22:00.785Z,101752.16
2023-02-09T04:25:02.377Z,101749.65
2023-02-09T04:28:04.120Z,101756.40
2023-02-09T04:31:05.953Z,101762.88
2023-02-09T04:34:07.462Z,101757.73
2023-02-09T04:37:09.449Z,101754.77
2023-02-09T04:40:11.299Z,101745.92
2023-02-09T04:43:12.852Z,101741.15
2023-02-09T04:46:16.857Z,101741.39
2023-02-09T04:49:18.458Z,101739.88
2023-02-09T04:52:20.124Z,101734.55
2023-02-09T04:55:21.660Z,101733.73
2023-02-09T04:58:23.313Z,101731.67
2023-02-09T05:01:25.672Z,101726.63
2023-02-09T05:04:27.617Z,101727.54
2023-02-09T05:07:29.338Z,101733.00
2023-02-09T05:10:31.050Z,101727.62
2023-02-09T05:13:32.789Z,101725.88
2023-02-09T05:16:34.352Z,101725.09
2023-02-09T05:19:35.932Z,101723.05
2023-02-09T05:22:37.543Z,101717.81
2023-02-09T05:25:39.180Z,101716.79
2023-02-09T05:28:40.709Z,101712.28
2023-02-09T05:31:42.276Z,101708.33
2023-02-09T05:34:44.149Z,101709.09
2023-02-09T05:37:45.638Z,101713.83
2023-02-09T05:40:47.734Z,101717.29
2023-02-09T05:43:49.671Z,101718.02
2023-02-09T05:46:51.208Z,101711.75
2023-02-09T05:49:53.059Z,101714.91
2023-02-09T05:52:54.561Z,101711.09
2023-02-09T05:55:56.045Z,101714.84
2023-02-09T05:58:57.720Z,101711.88
2023-02-09T06:01:59.855Z,101715.71
2023-02-09T06:05:01.611Z,101716.34
2023-02-09T06:08:03.503Z,101719.25
2023-02-09T06:11:04.922Z,101725.98
2023-02-09T06:14:06.680Z,101729.15
2023-02-09T06:17:08.485Z,101725.13
2023-02-09T06:20:10.820Z,101730.48
2023-02-09T06:23:12.418Z,101727.20
2023-02-09T06:26:17.124Z,101724.47
2023-02-09T06:29:18.854Z,101721.67
2023-02-09T06:32:20.465Z,101716.84
2023-02-09T06:35:22.369Z,101712.81
2023-02-09T06:38:24.104Z,101709.40
2023-02-09T06:41:25.625Z,101703.83
2023-02-09T06:44:27.147Z,101711.75
2023-02-09T06:47:28.774Z,101714.52
2023-02-09T06:50:31.005Z,101712.80
2023-02-09T06:53:32.838Z,101708.79
2023-02-09T06:56:34.379Z,101711.13
2023-02-09T06:59:36.152Z,101709.80
2023-02-09T07:02:37.814Z,101706.94
2023-02-09T07:05:40.174Z,101708.54
2023-02-09T07:08:42.482Z,101709.29
2023-02-09T07:11:44.002Z,101707.77
2023-02-09T07:14:45.679Z,101709.00
2023-02-09T07:17:47.520Z,101706.96
2023-02-09T07:21:00.534Z,101705.80
2023-02-09T07:24:02.084Z,101705.11
2023-02-09T07:27:06.992Z,101705.17
2023-02-09T07:30:09.683Z,101705.91
2023-02-09T07:33:11.221Z,101707.98
2023-02-09T07:36:15.441Z,101715.51
2023-02-09T07:39:17.629Z,101718.39
2023-02-09T07:42:19.492Z,101721.39
2023-02-09T07:45:21.053Z,101712.65
2023-02-09T07:48:22.732Z,101704.19
2023-02-09T07:51:24.734Z,101704.75
2023-02-09T07:54:26.569Z,101702.52
2023-02-09T07:57:28.446Z,101704.71
2023-02-09T08:00:29.953Z,101702.58
2023-02-09T08:03:32.195Z,101700.84
2023-02-09T08:06:43.420Z,101693.18
2023-02-09T08:09:45.233Z,101694.08
2023-02-09T08:12:46.991Z,101692.89
2023-02-09T08:16:01.227Z,101692.90
2023-02-09T08:19:15.623Z,101692.06
2023-02-09T08:22:17.558Z,101694.09
2023-02-09T08:25:19.810Z,101694.75
2023-02-09T08:28:31.806Z,101690.02
2023-02-09T08:31:40.648Z,101691.40
2023-02-09T08:34:42.365Z,101691.13
2023-02-09T08:37:43.892Z,101688.13
2023-02-09T08:40:46.370Z,101685.04
2023-02-09T08:43:51.672Z,101689.98
2023-02-09T08:46:53.582Z,101689.85
2023-02-09T08:49:55.384Z,101696.20
2023-02-09T08:52:56.999Z,101695.42
2023-02-09T08:55:58.584Z,101693.77
2023-02-09T08:59:00.211Z,101686.98
2023-02-09T09:02:02.081Z,101684.66
2023-02-09T09:05:04.011Z,101690.01
2023-02-09T09:08:06.505Z,101685.63
2023-02-09T09:11:08.500Z,101690.16
2023-02-09T09:14:10.182Z,101685.27
2023-02-09T09:17:11.747Z,101679.85
2023-02-09T09:20:13.729Z,101677.92
2023-02-09T09:23:15.540Z,101682.34
2023-02-09T09:26:17.545Z,101679.09
2023-02-09T09:29:19.090Z,101680.80
2023-02-09T09:32:20.828Z,101686.08
2023-02-09T09:35:22.718Z,101687.79
2023-02-09T09:38:24.252Z,101692.38
2023-02-09T09:41:31.193Z,101691.85
2023-02-09T09:44:41.750Z,101686.64
2023-02-09T09:47:43.943Z,101682.89
2023-02-09T09:50:46.415Z,101679.15
2023-02-09T09:53:51.108Z,101680.54
2023-02-09T09:56:53.974Z,101676.80
2023-02-09T09:59:56.700Z,101675.52
2023-02-09T10:02:58.392Z,101672.03
2023-02-09T10:06:02.026Z,101661.90
2023-02-09T10:09:16.939Z,101661.55
2023-02-09T10:12:36.885Z,101659.02
2023-02-09T10:15:38.564Z,101653.51
2023-02-09T10:18:40.152Z,101650.83
2023-02-09T10:21:41.923Z,101645.67
2023-02-09T10:24:43.587Z,101637.78
2023-02-09T10:27:46.452Z,101638.47
2023-02-09T10:30:51.234Z,101630.14
2023-02-09T10:33:59.106Z,101633.77
2023-02-09T10:37:17.414Z,101639.18
2023-02-09T10:40:27.794Z,101624.23
2023-02-09T10:43:33.850Z,101617.04
2023-02-09T10:46:37.721Z,101614.43
2023-02-09T10:49:39.436Z,101618.69
2023-02-09T10:53:01.813Z,101617.31
2023-02-09T10:56:15.100Z,101611.90
2023-02-09T10:59:22.454Z,101611.95
2023-02-09T11:02:37.819Z,101603.48
2023-02-09T11:05:39.474Z,101597.49
2023-02-09T11:08:47.363Z,101593.15
2023-02-09T11:11:49.110Z,101586.26
2023-02-09T11:14:50.763Z,101579.97
2023-02-09T11:18:17.320Z,101569.34
2023-02-09T11:21:31.702Z,101564.36
2023-02-09T11:24:43.401Z,101562.48
2023-02-09T11:28:18.911Z,101552.02
2023-02-09T11:31:35.956Z,101543.52
2023-02-09T11:34:54.069Z,101539.52
2023-02-09T11:38:02.937Z,101535.77
2023-02-09T11:41:08.399Z,101534.66
2023-02-09T11:44:18.643Z,101532.27
2023-02-09T11:47:30.573Z,101528.41
2023-02-09T11:51:09.993Z,101526.58
2023-02-09T11:54:17.763Z,101512.46
2023-02-09T11:57:33.685Z,101512.05
2023-02-09T12:00:54.749Z,101503.73
2023-02-09T12:04:16.292Z,101505.00
2023-02-09T12:07:21.795Z,101504.27
2023-02-09T12:10:42.273Z,101501.70
2023-02-09T12:14:07.337Z,101496.83
2023-02-09T12:17:24.325Z,101486.52
2023-02-09T12:20:29.554Z,101474.92
2023-02-09T12:23:37.904Z,101476.10
2023-02-09T12:26:44.388Z,101472.39
2023-02-09T12:29:45.997Z,101465.13
2023-02-09T12:32:47.664Z,101462.03
2023-02-09T12:36:07.649Z,101456.88
2023-02-09T12:39:26.353Z,101451.45
2023-02-09T12:42:30.746Z,101447.91
2023-02-09T12:45:44.257Z,101443.73
2023-02-09T12:48:50.948Z,101440.38
2023-02-09T12:52:04.338Z,101439.11
2023-02-09T12:55:18.268Z,101437.17
2023-02-09T12:58:44.691Z,101435.98
2023-02-09T13:02:08.074Z,101428.73
2023-02-09T13:05:12.999Z,101425.79
2023-02-09T13:08:21.562Z,101426.31
2023-02-09T13:11:49.820Z,101422.08
2023-02-09T13:14:51.593Z,101415.58
2023-02-09T13:18:17.825Z,101417.05
2023-02-09T13:21:35.083Z,101413.45
2023-02-09T13:24:45.172Z,101408.35
2023-02-09T13:27:48.963Z,101409.33
2023-02-09T13:30:50.624Z,101404.51
2023-02-09T13:33:52.761Z,101404.47
2023-02-09T13:37:10.026Z,101405.70
2023-02-09T13:40:17.759Z,101404.89
2023-02-09T13:43:30.541Z,101401.71
2023-02-09T13:46:33.103Z,101395.88
2023-02-09T13:49:34.799Z,101389.98
2023-02-09T13:52:39.001Z,101389.68
2023-02-09T13:55:41.035Z,101387.63
2023-02-09T13:58:42.533Z,101388.87
2023-02-09T14:01:45.053Z,101382.96
2023-02-09T14:04:49.967Z,101380.33
2023-02-09T14:07:52.414Z,101379.15
2023-02-09T14:11:13.421Z,101379.38
2023-02-09T14:14:45.099Z,101373.89
2023-02-09T14:17:50.813Z,101373.42
2023-02-09T14:21:22.108Z,101372.48
2023-02-09T14:24:28.342Z,101378.25
2023-02-09T14:27:31.814Z,101376.55
2023-02-09T14:30:35.530Z,101372.44
2023-02-09T14:33:37.669Z,101375.48
2023-02-09T14:36:39.340Z,101374.55
2023-02-09T14:39:54.296Z,101370.41
2023-02-09T14:43:17.018Z,101363.05
2023-02-09T14:46:18.563Z,101355.17
2023-02-09T14:49:21.309Z,101349.67
2023-02-09T14:52:24.651Z,101350.29
2023-02-09T14:55:28.627Z,101344.60
2023-02-09T14:58:32.018Z,101341.27
2023-02-09T15:01:33.625Z,101340.84
2023-02-09T15:04:35.201Z,101335.98
2023-02-09T15:07:39.836Z,101330.63
2023-02-09T15:10:47.614Z,101326.13
2023-02-09T15:13:53.520Z,101327.20
2023-02-09T15:16:55.060Z,101320.64
2023-02-09T15:19:57.971Z,101318.98
2023-02-09T15:22:59.816Z,101316.95
2023-02-09T15:26:01.224Z,101320.61
2023-02-09T15:29:10.668Z,101321.93
2023-02-09T15:32:15.299Z,101318.94
2023-02-09T15:35:20.172Z,101318.00
2023-02-09T15:38:21.832Z,101315.89
2023-02-09T15:41:23.440Z,101318.83
2023-02-09T15:44:25.073Z,101311.16
2023-02-09T15:47:26.783Z,101312.21
2023-02-09T15:50:29.786Z,101309.04
2023-02-09T15:53:31.616Z,101307.54
2023-02-09T15:56:33.747Z,101308.75
2023-02-09T15:59:35.508Z,101312.52
2023-02-09T16:02:37.156Z,101306.13
2023-02-09T16:05:39.244Z,101306.39
2023-02-09T16:08:41.140Z,101307.39
2023-02-09T16:11:42.954Z,101308.05
2023-02-09T16:14:44.703Z,101309.61
2023-02-09T16:17:46.361Z,101308.65
2023-02-09T16:20:50.659Z,101308.70
2023-02-09T16:23:54.799Z,101306.28
2023-02-09T16:26:59.349Z,101299.40
2023-02-09T16:30:00.983Z,101297.38
2023-02-09T16:33:02.719Z,101290.70
2023-02-09T16:36:10.904Z,101293.13
2023-02-09T16:39:17.117Z,101290.23
2023-02-09T16:42:18.737Z,101286.88
2023-02-09T16:45:20.956Z,101285.64
2023-02-09T16:48:25.489Z,101286.97
2023-02-09T16:51:27.213Z,101286.02
2023-02-09T16:54:30.093Z,101293.41
2023-02-09T16:57:31.666Z,101290.77
2023-02-09T17:00:35.771Z,101294.50
2023-02-09T17:03:40.562Z,101298.63
2023-02-09T17:06:42.190Z,101297.52
2023-02-09T17:09:43.736Z,101291.83
2023-02-09T17:12:45.490Z,101294.92
2023-02-09T17:15:49.886Z,101295.85
2023-02-09T17:18:54.025Z,101291.66
2023-02-09T17:21:55.582Z,101294.02
2023-02-09T17:24:57.348Z,101295.10
2023-02-09T17:27:59.027Z,101292.17
2023-02-09T17:31:02.405Z,101290.67
2023-02-09T17:34:07.054Z,101289.36
2023-02-09T17:37:12.924Z,101284.89
2023-02-09T17:40:19.719Z,101284.61
2023-02-09T17:43:21.824Z,101281.27
2023-02-09T17:46:23.508Z,101286.35
2023-02-09T17:49:25.326Z,101286.60
2023-02-09T17:52:26.974Z,101281.81
2023-02-09T17:55:29.535Z,101284.17
2023-02-09T17:58:31.077Z,101279.71
2023-02-09T18:01:32.691Z,101279.64
2023-02-09T18:04:34.629Z,101277.63
2023-02-09T18:07:36.113Z,101267.73
2023-02-09T18:10:37.926Z,101269.56
2023-02-09T18:13:39.466Z,101267.17
2023-02-09T18:16:41.401Z,101264.38
2023-02-09T18:19:43.044Z,101261.47
2023-02-09T18:22:44.746Z,101257.27
2023-02-09T18:25:46.747Z,101259.39
2023-02-09T18:28:48.464Z,101257.63
2023-02-09T18:31:50.710Z,101256.76
2023-02-09T18:34:52.296Z,101254.94
2023-02-09T18:37:54.015Z,101256.46
2023-02-09T18:40:55.572Z,101253.80
2023-02-09T18:43:57.245Z,101255.44
2023-02-09T18:46:59.935Z,101258.73
2023-02-09T18:50:01.463Z,101259.87
2023-02-09T18:53:03.625Z,101261.57
2023-02-09T18:56:05.686Z,101257.83
2023-02-09T18:59:07.207Z,101260.19
2023-02-09T19:02:11.145Z,101258.74
2023-02-09T19:05:15.151Z,101256.88
2023-02-09T19:08:16.795Z,101253.61
2023-02-09T19:11:20.564Z,101255.15
2023-02-09T19:14:22.361Z,101256.05
2023-02-09T19:17:24.368Z,101262.13
2023-02-09T19:20:30.734Z,101264.33
2023-02-09T19:23:32.365Z,101260.84
2023-02-09T19:26:34.035Z,101259.60
2023-02-09T19:29:37.453Z,101254.62
2023-02-09T19:32:39.226Z,101247.08
2023-02-09T19:35:40.839Z,101240.20
2023-02-09T19:38:42.520Z,101231.56
2023-02-09T19:41:44.212Z,101231.05
2023-02-09T19:44:45.800Z,101225.79
2023-02-09T19:47:47.461Z,101226.05
2023-02-09T19:50:56.888Z,101223.14
2023-02-09T19:53:58.519Z,101214.86
2023-02-09T19:57:00.321Z,101210.61
2023-02-09T20:00:03.464Z,101207.03
2023-02-09T20:03:06.952Z,101202.02
2023-02-09T20:06:10.047Z,101201.71
2023-02-09T20:09:11.641Z,101195.29
2023-02-09T20:12:13.412Z,101194.07
2023-02-09T20:15:15.226Z,101191.41
2023-02-09T20:18:17.600Z,101186.82
2023-02-09T20:21:22.099Z,101189.84
2023-02-09T20:24:23.703Z,101189.22
2023-02-09T20:27:25.800Z,101188.27
2023-02-09T20:30:27.345Z,101182.91
2023-02-09T20:33:29.096Z,101178.75
2023-02-09T20:36:32.649Z,101168.37
2023-02-09T20:39:34.316Z,101160.64
2023-02-09T20:42:35.990Z,101151.70
2023-02-09T20:45:37.616Z,101150.91
2023-02-09T20:48:39.183Z,101151.27
2023-02-09T20:51:40.788Z,101150.94
2023-02-09T20:54:42.302Z,101155.01
2023-02-09T20:57:44.028Z,101161.34
2023-02-09T21:00:45.948Z,101162.84
2023-02-09T21:03:47.525Z,101161.38
2023-02-09T21:06:49.064Z,101160.39
2023-02-09T21:09:51.034Z,101159.47
2023-02-09T21:12:52.521Z,101156.16
2023-02-09T21:15:54.202Z,101158.30
2023-02-09T21:18:55.774Z,101157.94
2023-02-09T21:21:57.511Z,101156.46
2023-02-09T21:24:59.210Z,101155.02
2023-02-09T21:28:00.899Z,101149.61
2023-02-09T21:31:02.836Z,101151.36
2023-02-09T21:34:04.437Z,101152.07
2023-02-09T21:37:06.498Z,101156.86
2023-02-09T21:40:09.210Z,101160.59
2023-02-09T21:43:11.829Z,101162.43
2023-02-09T21:46:16.781Z,101164.71
2023-02-09T21:49:18.353Z,101166.59
2023-02-09T21:52:20.372Z,101168.33
2023-02-09T21:55:21.953Z,101166.36
2023-02-09T21:58:23.529Z,101164.96
2023-02-09T22:01:25.114Z,101168.59
2023-02-09T22:04:26.703Z,101172.39
2023-02-09T22:07:28.510Z,101174.69
2023-02-09T22:10:30.083Z,101174.45
2023-02-09T22:13:32.614Z,101168.64
2023-02-09T22:16:34.309Z,101174.52
2023-02-09T22:19:37.115Z,101174.85
2023-02-09T22:22:38.678Z,101170.23
2023-02-09T22:25:40.260Z,101169.63
2023-02-09T22:28:42.631Z,101168.08
2023-02-09T22:31:44.514Z,101172.27
2023-02-09T22:34:45.966Z,101173.91
2023-02-09T22:37:47.580Z,101175.80
2023-02-09T22:40:49.113Z,101169.36
2023-02-09T22:43:55.713Z,101163.33
2023-02-09T22:46:57.317Z,101155.42
2023-02-09T22:49:59.206Z,101148.10
2023-02-09T22:53:00.655Z,101143.06
2023-02-09T22:56:03.346Z,101134.13
2023-02-09T22:59:05.258Z,101139.43
2023-02-09T23:02:07.009Z,101149.02
2023-02-09T23:05:08.691Z,101157.31
2023-02-09T23:08:10.241Z,101162.15
2023-02-09T23:11:14.369Z,101163.48
2023-02-09T23:14:16.706Z,101164.84
2023-02-09T23:17:19.489Z,101164.80
2023-02-09T23:20:21.162Z,101169.96
2023-02-09T23:23:22.699Z,101160.69
2023-02-09T23:26:24.756Z,101157.42
2023-02-09T23:29:26.512Z,101157.46
2023-02-09T23:32:28.044Z,101150.50
2023-02-09T23:35:29.817Z,101143.15
2023-02-09T23:38:31.683Z,101147.70
2023-02-09T23:41:33.556Z,101162.80
2023-02-09T23:44:35.099Z,101171.01
2023-02-09T23:47:36.718Z,101175.12
2023-02-09T23:50:38.373Z,101172.05
2023-02-09T23:53:40.168Z,101163.20
2023-02-09T23:56:41.697Z,101162.71
2023-02-09T23:59:43.234Z,101164.09
